Woodlawn, Ohio
Current Conditions -  °F | °C
As of 5:53 PM on Friday 28 Nov 2014 (Local Time) from KHAO Reporting Station
Clear Clear  
Wind Chill: 28°   Ceiling: Unl
Heat Index: 34°   Visibility: 10mi
Dew Point: 16°   Wind: 7mph
Humidity: 48%   Direction: 170°S
Pressure: 30.19"   Gusts: NA
Location:  39.236°N, 84.4599°W
Report Text: KHAO 282253Z AUTO 17006KT 10SM CLR 01/M09 A3019 RMK AO2 SLP230 T00111089
Loading
Personal Weather Stations






























Interactive Weather Map New forecast layout! Learn more

10-Day Weather Forecast

Advertisements
Track Severe Weather on mobile